Time;durP1;ratioP1;P1;durP2;ratioP2;P2;SDS_P1;SDS_P2;PMS_P1;PMS_P2;Temp;Humidity;BMP_temperature;BMP_pressure;BME280_temperature;BME280_humidity;BME280_pressure;Samples;Min_cycle;Max_cycle;Signal;HPM_P1;HPM_P2
2022/04/03 00:02:04;;;;;;;4.95;3.08;;;;;;;15.03;52.60;100036.13;1695350;85;21077;-65
2022/04/03 00:04:31;;;;;;;4.87;3.80;;;;;;;15.04;52.58;100041.77;1695179;85;21042;-65
2022/04/03 00:06:59;;;;;;;4.15;3.33;;;;;;;15.04;52.52;100041.77;1695279;85;21026;-65
2022/04/03 00:09:27;;;;;;;3.92;3.25;;;;;;;15.04;52.60;100043.08;1695079;85;21012;-65
2022/04/03 00:11:55;;;;;;;3.58;3.25;;;;;;;15.03;52.64;100044.84;1695140;85;21099;-65
2022/04/03 00:14:23;;;;;;;3.87;3.30;;;;;;;15.04;52.67;100040.46;1653538;86;21021;-65
2022/04/03 00:16:52;;;;;;;3.90;3.42;;;;;;;15.01;52.60;100048.46;1694658;85;21051;-64
2022/04/03 00:19:19;;;;;;;5.87;4.75;;;;;;;14.92;52.75;100035.85;1695106;85;21079;-64
2022/04/03 00:21:49;;;;;;;7.85;6.35;;;;;;;14.86;53.10;100028.30;1695341;85;21329;-65
2022/04/03 00:24:17;;;;;;;23.75;11.30;;;;;;;14.85;53.33;100030.52;1695357;85;21044;-65
2022/04/03 00:26:45;;;;;;;24.77;14.28;;;;;;;14.85;53.37;100037.07;1695158;85;21046;-64
2022/04/03 00:29:11;;;;;;;22.98;14.03;;;;;;;14.78;53.62;100039.14;1692655;85;21091;-64
2022/04/03 00:31:39;;;;;;;18.25;10.85;;;;;;;14.78;53.73;100038.28;1695026;85;21462;-65
2022/04/03 00:34:06;;;;;;;18.25;10.43;;;;;;;14.79;53.81;100043.92;1695138;84;21078;-65
2022/04/03 00:36:34;;;;;;;18.65;11.75;;;;;;;14.80;53.83;100049.53;1695084;85;21079;-65
2022/04/03 00:39:01;;;;;;;28.52;15.00;;;;;;;14.80;53.92;100049.08;1695197;85;21136;-65
2022/04/03 00:41:28;;;;;;;26.68;15.00;;;;;;;14.80;53.81;100047.77;1694926;85;21042;-65
2022/04/03 00:43:55;;;;;;;21.07;13.28;;;;;;;14.81;53.67;100052.55;1695011;85;21488;-65
2022/04/03 00:46:23;;;;;;;20.52;11.43;;;;;;;14.82;53.51;100055.58;1694858;85;21038;-65
2022/04/03 00:48:50;;;;;;;21.90;11.45;;;;;;;14.82;53.51;100051.65;1695033;85;21092;-65
2022/04/03 00:51:18;;;;;;;17.37;10.32;;;;;;;14.82;53.48;100045.10;1695054;85;21059;-65
2022/04/03 00:53:45;;;;;;;18.67;9.63;;;;;;;14.81;53.50;100051.25;1689050;85;21096;-65
2022/04/03 00:56:12;;;;;;;16.25;9.98;;;;;;;14.81;53.52;100053.86;1695131;85;21055;-65
2022/04/03 00:58:39;;;;;;;13.08;8.85;;;;;;;14.81;53.58;100052.55;1695122;85;21500;-65
2022/04/03 01:01:06;;;;;;;13.48;8.00;;;;;;;14.81;53.51;100066.96;1695275;84;21029;-64
2022/04/03 01:03:33;;;;;;;11.00;7.33;;;;;;;14.81;53.57;100056.03;1695333;84;21058;-65
2022/04/03 01:06:01;;;;;;;10.68;7.03;;;;;;;14.81;53.52;100057.80;1695092;85;21020;-65
2022/04/03 01:08:29;;;;;;;9.68;6.80;;;;;;;14.81;53.41;100063.03;1695199;85;21124;-65
2022/04/03 01:10:56;;;;;;;10.90;7.40;;;;;;;14.82;53.42;100059.50;1695378;85;21040;-65
2022/04/03 01:13:25;;;;;;;12.80;8.20;;;;;;;14.80;53.39;100054.77;1695070;85;21046;-65
2022/04/03 01:15:55;;;;;;;13.60;8.50;;;;;;;14.80;53.29;100060.87;1683363;85;21129;-65
2022/04/03 01:18:25;;;;;;;11.33;7.67;;;;;;;14.77;53.31;100061.03;1695170;85;21519;-65
2022/04/03 01:20:54;;;;;;;8.98;6.47;;;;;;;14.78;53.20;100065.78;1695382;85;21094;-65
2022/04/03 01:23:23;;;;;;;7.90;5.95;;;;;;;14.76;53.15;100067.64;1689725;85;21693;-65
2022/04/03 01:25:49;;;;;;;8.98;6.40;;;;;;;14.73;53.04;100076.97;1695473;84;21050;-65
2022/04/03 01:28:17;;;;;;;7.20;5.60;;;;;;;14.72;53.15;100069.56;1695191;85;21530;-65
2022/04/03 01:30:44;;;;;;;6.25;5.40;;;;;;;14.69;53.13;100064.02;1695045;85;21048;-66
2022/04/03 01:33:11;;;;;;;6.62;5.37;;;;;;;14.67;53.20;100072.41;1694991;85;21050;-65
2022/04/03 01:35:38;;;;;;;6.83;5.40;;;;;;;14.66;53.22;100070.73;1695120;85;21068;-65
2022/04/03 01:38:05;;;;;;;6.62;5.47;;;;;;;14.65;53.24;100072.94;1695215;84;21053;-65
2022/04/03 01:43:03;;;;;;;6.05;5.10;;;;;;;14.63;53.33;100069.55;1607458;88;21111;-65
2022/04/03 01:45:31;;;;;;;5.83;5.15;;;;;;;14.62;53.39;100073.11;1591354;90;21582;-66
2022/04/03 01:47:58;;;;;;;6.78;5.25;;;;;;;14.61;53.39;100080.56;1607445;88;21082;-66
2022/04/03 01:50:24;;;;;;;6.33;4.95;;;;;;;14.60;53.45;100080.64;1595997;90;21063;-65
2022/04/03 01:52:52;;;;;;;6.30;5.30;;;;;;;14.59;53.57;100081.09;1607256;88;21051;-66
2022/04/03 01:55:19;;;;;;;7.17;5.85;;;;;;;14.60;53.63;100076.72;1596480;90;21026;-66
2022/04/03 01:57:46;;;;;;;6.15;4.80;;;;;;;14.59;53.74;100072.39;1595979;90;21059;-66
2022/04/03 02:00:13;;;;;;;5.55;4.95;;;;;;;14.59;53.78;100071.08;1607588;88;21593;-66
2022/04/03 02:02:42;;;;;;;5.58;5.08;;;;;;;14.59;53.80;100073.25;1596228;90;21063;-65
2022/04/03 02:05:09;;;;;;;5.42;4.92;;;;;;;14.58;53.88;100076.80;1596002;90;21063;-66
2022/04/03 02:07:38;;;;;;;5.37;4.87;;;;;;;14.58;53.91;100082.04;1596070;90;21079;-66
2022/04/03 02:12:37;;;;;;;;;;;;;;;14.58;53.91;100079.42;1591736;89;21180;-65
2022/04/03 02:15:06;;;;;;;6.25;4.85;;;;;;;14.58;53.91;100075.49;1586972;89;20096;-65
2022/04/03 02:17:33;;;;;;;5.47;4.78;;;;;;;14.57;53.95;100076.41;1594379;90;21110;-65
2022/04/03 02:20:01;;;;;;;5.92;5.33;;;;;;;14.56;53.94;100077.80;1593977;89;21588;-65
2022/04/03 02:22:29;;;;;;;5.10;4.60;;;;;;;14.53;53.99;100077.47;1594163;89;21068;-66
2022/04/03 02:24:57;;;;;;;6.20;5.45;;;;;;;14.49;54.05;100074.62;1588709;89;21028;-66
2022/04/03 02:27:25;;;;;;;6.40;5.47;;;;;;;14.43;54.14;100069.68;1594215;89;21024;-66
2022/04/03 02:29:53;;;;;;;5.90;5.20;;;;;;;14.37;54.42;100069.12;1593971;89;21052;-65
2022/04/03 02:32:21;;;;;;;7.85;5.62;;;;;;;14.31;54.73;100066.34;1594043;89;21144;-66
2022/04/03 02:34:47;;;;;;;7.03;5.92;;;;;;;14.30;54.98;100063.33;1594288;89;21625;-66
2022/04/03 02:37:14;;;;;;;7.78;6.12;;;;;;;14.30;55.15;100073.80;1594151;89;21512;-66
2022/04/03 02:39:44;;;;;;;7.03;6.33;;;;;;;14.33;55.31;100074.97;1629248;85;21141;-66
2022/04/03 02:42:11;;;;;;;8.93;6.33;;;;;;;14.36;55.40;100071.37;1669848;86;21565;-66
2022/04/03 02:44:38;;;;;;;9.18;7.35;;;;;;;14.40;55.42;100069.84;1670257;86;21058;-66
2022/04/03 02:47:06;;;;;;;9.68;7.30;;;;;;;14.42;55.44;100068.00;1666960;86;21054;-66
2022/04/03 02:49:32;;;;;;;9.15;6.75;;;;;;;14.46;55.40;100064.31;1670166;86;21041;-66
2022/04/03 02:51:59;;;;;;;8.65;6.72;;;;;;;14.48;55.41;100071.63;1669701;86;21058;-66
2022/04/03 02:54:26;;;;;;;11.00;7.97;;;;;;;14.50;55.34;100071.09;1669687;86;21557;-66
2022/04/03 02:56:54;;;;;;;12.68;8.43;;;;;;;14.51;55.23;100066.23;1669906;86;21416;-66
2022/04/03 02:59:20;;;;;;;12.95;8.70;;;;;;;14.53;55.25;100064.38;1669714;86;21565;-66
2022/04/03 03:01:47;;;;;;;9.28;8.03;;;;;;;14.53;55.26;100064.38;1669787;86;21609;-65
2022/04/03 03:04:15;;;;;;;10.93;8.00;;;;;;;14.54;55.29;100060.00;1669887;86;21038;-66
2022/04/03 03:06:42;;;;;;;12.03;8.28;;;;;;;14.54;55.32;100060.86;1670189;86;21058;-65
2022/04/03 03:09:09;;;;;;;10.48;7.83;;;;;;;14.54;55.33;100060.86;1674294;85;21051;-66
2022/04/03 03:11:37;;;;;;;12.45;8.18;;;;;;;14.55;55.27;100052.52;1700362;84;21521;-66
2022/04/03 03:14:04;;;;;;;8.95;7.35;;;;;;;14.54;55.21;100049.53;1699962;84;21026;-66
2022/04/03 03:16:30;;;;;;;10.35;7.40;;;;;;;14.53;55.17;100044.75;1699952;84;20998;-66
2022/04/03 03:18:57;;;;;;;10.08;7.42;;;;;;;14.53;55.10;100042.59;1700430;84;21510;-66
2022/04/03 03:21:26;;;;;;;10.08;7.15;;;;;;;14.53;55.03;100041.27;1700126;84;21046;-66
2022/04/03 03:23:52;;;;;;;9.65;7.95;;;;;;;14.52;54.99;100050.92;1687750;84;21171;-66
2022/04/03 03:26:20;;;;;;;10.32;7.90;;;;;;;14.50;54.91;100043.61;1700018;84;21014;-66
2022/04/03 03:28:48;;;;;;;9.20;7.33;;;;;;;14.49;54.84;100048.44;1698782;84;21038;-66
2022/04/03 03:31:16;;;;;;;29.45;11.30;;;;;;;14.48;54.84;100049.38;1700237;84;21078;-66
2022/04/03 03:33:44;;;;;;;38.88;13.85;;;;;;;14.49;54.79;100054.98;1699895;84;21002;-66
2022/04/03 03:36:12;;;;;;;34.27;12.15;;;;;;;14.46;54.67;100043.38;1700083;84;21473;-66
2022/04/03 03:38:40;;;;;;;22.45;10.43;;;;;;;14.46;54.62;100047.75;1700176;84;21090;-66
2022/04/03 03:41:07;;;;;;;22.60;8.75;;;;;;;14.43;54.54;100051.36;1696506;84;22291;-66
2022/04/03 03:43:34;;;;;;;21.73;9.00;;;;;;;14.42;54.45;100046.20;1693692;85;21553;-66
2022/04/03 03:46:00;;;;;;;24.80;9.63;;;;;;;14.42;54.49;100044.89;1693798;85;21042;-66
2022/04/03 03:48:27;;;;;;;25.02;9.73;;;;;;;14.40;54.49;100039.75;1693839;85;21034;-66
2022/04/03 03:50:55;;;;;;;25.80;10.35;;;;;;;14.39;54.51;100033.25;1694068;85;21034;-66
2022/04/03 03:53:22;;;;;;;18.00;8.35;;;;;;;14.39;54.61;100031.48;1693951;85;21530;-66
2022/04/03 03:55:49;;;;;;;18.35;7.87;;;;;;;14.38;54.66;100027.20;1693671;85;21049;-66
2022/04/03 03:58:16;;;;;;;21.23;8.63;;;;;;;14.39;54.73;100023.64;1694116;85;21065;-66
2022/04/03 04:00:43;;;;;;;23.10;8.98;;;;;;;14.39;54.71;100041.96;1693503;85;21581;-66
2022/04/03 04:03:10;;;;;;;21.07;8.35;;;;;;;14.40;54.77;100054.59;1694100;85;21030;-66
2022/04/03 04:05:37;;;;;;;28.12;12.82;;;;;;;14.42;54.74;100070.63;1693666;85;21533;-65
2022/04/03 04:08:05;;;;;;;24.50;12.70;;;;;;;14.42;54.80;100073.23;1693828;85;21526;-66
2022/04/03 04:10:32;;;;;;;20.88;11.18;;;;;;;14.44;54.79;100068.77;1693773;85;21110;-66
2022/04/03 04:13:00;;;;;;;17.70;10.53;;;;;;;14.45;54.80;100044.73;1693944;85;21082;-66
2022/04/03 04:15:28;;;;;;;20.48;10.40;;;;;;;14.47;54.99;100041.58;1693677;85;21070;-65
2022/04/03 04:17:55;;;;;;;22.30;10.68;;;;;;;14.47;55.09;100035.03;1694032;85;21530;-66
2022/04/03 04:20:22;;;;;;;27.60;12.30;;;;;;;14.48;55.33;100041.52;1693943;85;21082;-66
2022/04/03 04:22:49;;;;;;;21.35;10.60;;;;;;;14.52;55.49;100043.52;1693643;85;21034;-67
2022/04/03 04:25:17;;;;;;;45.92;15.18;;;;;;;14.52;55.72;100045.69;1694001;85;21577;-67
2022/04/03 04:27:45;;;;;;;25.50;10.90;;;;;;;14.57;55.49;100014.88;1692770;85;21050;-66
2022/04/03 04:30:13;;;;;;;26.45;11.15;;;;;;;14.61;54.72;99992.85;1693807;85;21070;-67
2022/04/03 04:32:42;;;;;;;24.63;10.95;;;;;;;14.60;54.58;99978.08;1693680;85;21070;-67
2022/04/03 04:35:09;;;;;;;30.57;12.28;;;;;;;14.53;54.77;99963.59;1693929;85;21506;-66
2022/04/03 04:37:36;;;;;;;34.92;10.78;;;;;;;14.45;55.08;99972.30;1693631;85;21034;-67
2022/04/03 04:40:05;;;;;;;15.15;9.40;;;;;;;14.39;55.49;99967.82;1693699;85;21124;-65
2022/04/03 04:42:33;;;;;;;13.35;9.00;;;;;;;14.37;56.07;99975.75;1679650;84;21595;-65
2022/04/03 04:45:00;;;;;;;10.78;7.67;;;;;;;14.35;56.61;99989.83;1679528;85;21053;-64
2022/04/03 04:47:27;;;;;;;10.88;8.20;;;;;;;14.32;57.04;99987.38;1680536;85;21077;-65
2022/04/03 04:49:54;;;;;;;9.70;7.65;;;;;;;14.29;57.60;99989.68;1678823;85;21065;-65
2022/04/03 04:52:22;;;;;;;9.38;7.95;;;;;;;14.26;58.07;99985.86;1681596;85;21019;-66
2022/04/03 04:54:49;;;;;;;9.50;7.90;;;;;;;14.26;58.29;99991.09;1681204;85;21027;-65
2022/04/03 04:57:16;;;;;;;8.23;7.42;;;;;;;14.27;58.51;100004.58;1679526;85;21058;-66
2022/04/03 04:59:44;;;;;;;23.02;11.97;;;;;;;14.34;58.63;100019.56;1679742;85;21011;-65
2022/04/03 05:02:11;;;;;;;25.62;12.47;;;;;;;14.41;58.70;100026.17;1656100;86;21070;-66
2022/04/03 05:04:38;;;;;;;17.07;10.00;;;;;;;14.45;58.70;100031.19;1679600;85;21097;-66
2022/04/03 05:07:06;;;;;;;10.43;8.35;;;;;;;14.53;58.60;100042.12;1656259;86;21066;-65
2022/04/03 05:09:33;;;;;;;15.60;8.70;;;;;;;14.60;58.62;100051.39;1644726;87;21101;-67
2022/04/03 05:12:00;;;;;;;22.07;10.45;;;;;;;14.68;58.56;100062.34;1656392;86;21094;-68
2022/04/03 05:14:27;;;;;;;16.73;9.15;;;;;;;14.76;58.44;100069.80;1656443;86;21534;-67
2022/04/03 05:16:54;;;;;;;18.35;9.08;;;;;;;14.82;58.11;100072.59;1679434;85;21094;-67
2022/04/03 05:19:24;;;;;;;15.45;8.55;;;;;;;14.85;57.50;100071.13;1672690;85;21034;-66
2022/04/03 05:21:51;;;;;;;17.45;8.13;;;;;;;14.87;56.87;100060.11;1676538;85;21038;-66
2022/04/03 05:24:20;;;;;;;12.05;8.28;;;;;;;14.87;56.74;100056.17;1683694;85;21019;-66
2022/04/03 05:26:47;;;;;;;14.73;8.38;;;;;;;14.88;56.66;100055.27;1680482;85;21041;-66
2022/04/03 05:29:14;;;;;;;13.00;8.70;;;;;;;14.89;56.69;100054.33;1681576;85;21078;-67
2022/04/03 05:31:41;;;;;;;10.35;8.18;;;;;;;14.90;56.70;100058.66;1681639;85;21054;-66
2022/04/03 05:34:09;;;;;;;12.55;9.10;;;;;;;14.92;56.75;100057.63;1679959;85;21061;-66
2022/04/03 05:36:36;;;;;;;10.20;8.85;;;;;;;14.96;56.79;100056.55;1680574;85;21105;-67
2022/04/03 05:39:06;;;;;;;10.90;7.85;;;;;;;14.98;56.91;100051.26;1676833;85;21054;-66
2022/04/03 05:41:34;;;;;;;13.68;8.83;;;;;;;15.00;56.89;100046.78;1681506;84;21078;-67
2022/04/03 05:44:01;;;;;;;13.78;9.05;;;;;;;15.03;56.96;100053.16;1681370;85;21145;-64
2022/04/03 05:46:29;;;;;;;13.58;8.80;;;;;;;15.04;57.00;100052.25;1680260;85;21503;-66
2022/04/03 05:48:59;;;;;;;10.53;8.30;;;;;;;15.05;57.11;100056.09;1674915;85;21585;-66
2022/04/03 05:51:26;;;;;;;10.95;8.48;;;;;;;15.10;57.17;100083.38;1679851;85;21562;-66
2022/04/03 05:53:53;;;;;;;10.30;8.10;;;;;;;15.13;57.18;100089.76;1665338;85;21029;-65
2022/04/03 05:56:26;;;;;;;9.90;7.97;;;;;;;15.13;57.12;100088.45;1681546;85;21070;-66
2022/04/03 05:58:49;;;;;;;8.35;7.45;;;;;;;15.11;57.04;100087.68;1676919;85;21066;-66
2022/04/03 06:01:16;;;;;;;10.75;8.30;;;;;;;15.05;56.35;100090.61;1679980;85;21054;-66
2022/04/03 06:03:43;;;;;;;7.45;6.75;;;;;;;14.93;55.55;100085.53;1681224;85;21026;-66
2022/04/03 06:06:11;;;;;;;7.55;6.80;;;;;;;14.86;55.14;100086.75;1678340;85;21050;-66
2022/04/03 06:08:39;;;;;;;7.80;6.35;;;;;;;14.79;54.96;100082.76;1656076;86;21040;-66
2022/04/03 06:11:08;;;;;;;7.40;6.70;;;;;;;14.75;54.89;100075.13;1639909;87;21122;-65
2022/04/03 06:13:36;;;;;;;7.78;6.97;;;;;;;14.73;55.09;100066.50;1674212;85;21058;-66
2022/04/03 06:16:04;;;;;;;7.40;6.70;;;;;;;14.73;55.04;100058.64;1677675;85;21053;-65
2022/04/03 06:18:32;;;;;;;8.55;6.67;;;;;;;14.75;55.24;100048.94;1680028;85;21026;-65
2022/04/03 06:20:59;;;;;;;7.25;6.47;;;;;;;14.82;55.26;100047.72;1656200;86;21039;-65
2022/04/03 06:23:27;;;;;;;8.95;6.65;;;;;;;14.90;55.35;100045.56;1679376;85;21035;-65
2022/04/03 06:25:56;;;;;;;10.82;9.15;;;;;;;15.02;55.22;100045.75;1679229;85;21062;-65
2022/04/03 06:28:23;;;;;;;11.40;8.63;;;;;;;15.19;54.94;100046.20;1679711;85;21534;-65
2022/04/03 06:30:52;;;;;;;7.97;7.17;;;;;;;15.30;54.29;100045.20;1680749;85;21054;-65
2022/04/03 06:33:19;;;;;;;8.13;6.72;;;;;;;15.43;54.07;100043.67;1681543;85;21042;-65
2022/04/03 06:35:48;;;;;;;7.95;6.78;;;;;;;15.63;53.66;100044.77;1681543;85;21503;-65
2022/04/03 06:38:15;;;;;;;7.47;6.45;;;;;;;15.82;53.00;100049.88;1678940;85;21633;-65
2022/04/03 06:40:50;;;;;;;7.50;6.08;;;;;;;16.04;52.86;100040.74;1681481;85;21053;-66
2022/04/03 06:43:26;;;;;;;8.68;7.30;;;;;;;16.29;51.99;100034.52;1651454;87;21550;-65
2022/04/03 06:45:54;;;;;;;10.05;6.55;;;;;;;16.61;51.24;100034.50;1671001;85;21051;-66
2022/04/03 06:48:22;;;;;;;7.92;6.72;;;;;;;16.93;50.66;100036.08;1687601;85;21499;-65
2022/04/03 06:50:50;;;;;;;8.73;6.90;;;;;;;17.19;49.94;100043.26;1693514;85;21101;-65
2022/04/03 06:53:16;;;;;;;7.12;5.75;;;;;;;17.28;49.30;100042.72;1693680;85;21085;-65
2022/04/03 06:55:43;;;;;;;8.25;6.30;;;;;;;17.20;49.51;100048.91;1693503;85;21022;-65
2022/04/03 06:58:10;;;;;;;7.03;5.83;;;;;;;17.12;49.71;100055.09;1693658;85;21046;-66
2022/04/03 07:00:38;;;;;;;7.35;6.58;;;;;;;17.11;50.03;100056.02;1687418;85;21054;-63
2022/04/03 07:03:05;;;;;;;7.03;6.35;;;;;;;17.13;50.18;100055.45;1693511;85;21550;-65
2022/04/03 07:05:32;;;;;;;7.70;6.90;;;;;;;17.19;50.55;100055.58;1693430;85;21077;-64
2022/04/03 07:07:59;;;;;;;8.25;7.42;;;;;;;17.33;50.54;100065.62;1693799;85;21085;-65
2022/04/03 07:10:28;;;;;;;8.00;6.53;;;;;;;17.41;50.53;100073.92;1693477;85;21554;-65
2022/04/03 07:12:59;;;;;;;6.75;6.12;;;;;;;17.40;49.91;100071.36;1693902;85;21045;-64
2022/04/03 07:15:27;;;;;;;6.50;5.90;;;;;;;17.25;49.76;100075.75;1693498;85;21073;-65
2022/04/03 07:17:54;;;;;;;6.12;5.62;;;;;;;16.99;49.96;100077.77;1693514;84;21083;-65
2022/04/03 07:20:21;;;;;;;7.58;6.03;;;;;;;16.70;50.04;100087.80;1693799;85;21530;-66
2022/04/03 07:22:49;;;;;;;6.35;5.75;;;;;;;16.39;50.66;100097.84;1693580;85;21125;-66
2022/04/03 07:25:16;;;;;;;6.78;6.17;;;;;;;16.21;51.44;100099.72;1693828;85;21113;-65
2022/04/03 07:27:44;;;;;;;7.28;6.60;;;;;;;16.17;51.85;100100.83;1693479;85;21091;-65
2022/04/03 07:30:15;;;;;;;7.62;6.92;;;;;;;16.14;51.71;100100.98;1693879;85;21022;-66
2022/04/03 07:32:42;;;;;;;7.90;7.10;;;;;;;16.12;52.10;100101.53;1693681;85;21546;-65
2022/04/03 07:35:10;;;;;;;7.50;6.80;;;;;;;16.17;52.06;100103.45;1693691;85;21042;-65
2022/04/03 07:37:37;;;;;;;6.97;6.37;;;;;;;16.21;51.96;100103.66;1693549;85;21046;-65
2022/04/03 07:40:08;;;;;;;6.50;6.00;;;;;;;16.28;51.54;100111.56;1693531;85;21057;-66
2022/04/03 07:42:36;;;;;;;6.65;6.05;;;;;;;16.32;51.12;100114.03;1693783;85;21073;-66
2022/04/03 07:45:04;;;;;;;6.67;6.08;;;;;;;16.27;50.73;100129.58;1693284;85;21566;-65
2022/04/03 07:47:33;;;;;;;7.35;6.75;;;;;;;16.19;50.56;100123.91;1693478;85;21554;-66
2022/04/03 07:50:03;;;;;;;6.37;5.87;;;;;;;16.13;50.53;100130.80;1693600;85;21031;-65
2022/04/03 07:52:32;;;;;;;8.38;7.65;;;;;;;16.10;50.65;100125.70;1694062;85;21026;-65
2022/04/03 07:55:00;;;;;;;7.87;7.08;;;;;;;16.07;50.28;100133.72;1693778;85;21006;-65
2022/04/03 07:57:26;;;;;;;7.87;7.28;;;;;;;16.04;50.27;100136.53;1693641;85;21514;-65
2022/04/03 07:59:54;;;;;;;8.30;7.60;;;;;;;15.96;50.30;100144.42;1681720;85;21085;-65
2022/04/03 08:02:21;;;;;;;7.85;7.25;;;;;;;15.92;50.55;100145.06;1693652;85;21046;-65
2022/04/03 08:04:48;;;;;;;8.85;8.05;;;;;;;15.88;50.60;100150.09;1693830;85;21074;-64
2022/04/03 08:07:15;;;;;;;7.92;7.33;;;;;;;15.87;50.88;100160.64;1693822;85;21092;-65
2022/04/03 08:09:44;;;;;;;7.55;6.90;;;;;;;15.89;50.74;100166.20;1693526;85;21053;-65
2022/04/03 08:12:12;;;;;;;8.10;7.40;;;;;;;15.92;50.75;100173.92;1693534;85;21042;-65
2022/04/03 08:14:40;;;;;;;8.38;7.67;;;;;;;16.00;50.84;100176.98;1681844;85;21097;-65
2022/04/03 08:17:09;;;;;;;9.10;8.30;;;;;;;16.06;50.52;100180.59;1693618;85;21038;-64
2022/04/03 08:19:37;;;;;;;9.30;8.45;;;;;;;16.08;50.42;100183.98;1693697;85;21042;-65
2022/04/03 08:22:04;;;;;;;9.25;8.45;;;;;;;16.02;50.52;100186.08;1693561;85;21046;-65
2022/04/03 08:24:31;;;;;;;9.20;8.38;;;;;;;15.94;50.73;100191.74;1693865;85;21538;-65
2022/04/03 08:26:58;;;;;;;8.85;8.05;;;;;;;15.88;50.87;100193.84;1693471;85;21030;-65
2022/04/03 08:29:25;;;;;;;8.80;7.95;;;;;;;15.84;50.28;100190.98;1693798;85;21530;-65
2022/04/03 08:31:54;;;;;;;8.55;7.40;;;;;;;15.78;50.42;100200.03;1693617;85;21086;-65
2022/04/03 08:34:21;;;;;;;8.33;7.62;;;;;;;15.71;50.53;100196.02;1693625;85;21601;-65
2022/04/03 08:36:48;;;;;;;7.50;6.80;;;;;;;15.61;50.47;100197.42;1693844;85;21061;-65
2022/04/03 08:39:16;;;;;;;8.13;7.42;;;;;;;15.53;50.67;100195.65;1693516;85;21038;-64
2022/04/03 08:41:43;;;;;;;8.40;7.70;;;;;;;15.53;50.92;100207.45;1693753;85;21065;-65
2022/04/03 08:44:11;;;;;;;8.45;7.75;;;;;;;15.53;50.73;100204.83;1693990;85;21066;-65
2022/04/03 08:46:40;;;;;;;8.53;7.83;;;;;;;15.55;50.81;100212.16;1694217;85;21058;-65
2022/04/03 08:49:08;;;;;;;7.97;7.28;;;;;;;15.55;50.82;100212.16;1672099;85;21031;-65
2022/04/03 08:51:37;;;;;;;8.28;7.47;;;;;;;15.60;50.89;100220.62;1694247;85;21050;-65
2022/04/03 08:54:04;;;;;;;8.03;7.25;;;;;;;15.65;50.91;100217.31;1668270;85;21043;-65
2022/04/03 08:56:31;;;;;;;9.60;7.40;;;;;;;15.72;50.69;100220.02;1694392;85;21018;-65
2022/04/03 08:58:59;;;;;;;8.18;7.47;;;;;;;15.76;50.27;100224.19;1694287;85;21046;-65
2022/04/03 09:01:26;;;;;;;8.90;8.05;;;;;;;15.75;50.20;100229.03;1666462;85;21566;-65
2022/04/03 09:03:53;;;;;;;7.28;6.62;;;;;;;15.68;50.05;100231.59;1694410;85;21054;-65
2022/04/03 09:06:23;;;;;;;7.85;7.15;;;;;;;15.64;50.36;100239.20;1694002;85;21046;-63
2022/04/03 09:08:50;;;;;;;8.33;7.62;;;;;;;15.66;50.48;100242.60;1694135;85;21094;-65
2022/04/03 09:11:19;;;;;;;7.28;6.67;;;;;;;15.67;50.70;100250.87;1673029;85;21094;-66
2022/04/03 09:13:46;;;;;;;8.58;7.83;;;;;;;15.72;50.69;100252.81;1692877;85;21575;-64
2022/04/03 09:16:14;;;;;;;8.33;7.62;;;;;;;15.77;50.43;100258.66;1694122;85;21006;-64
2022/04/03 09:18:49;;;;;;;9.13;8.33;;;;;;;15.73;50.26;100265.44;1657196;85;21603;-64
2022/04/03 09:21:23;;;;;;;9.60;8.70;;;;;;;15.66;50.16;100266.20;1694346;85;21559;-64
2022/04/03 09:24:11;;;;;;;9.15;8.35;;;;;;;15.56;50.61;100262.34;1694204;85;21010;-64
2022/04/03 09:26:40;;;;;;;8.88;8.08;;;;;;;15.50;50.63;100261.34;1694262;85;21514;-64
2022/04/03 09:29:12;;;;;;;9.38;8.58;;;;;;;15.43;50.54;100263.90;1694369;85;21550;-64
2022/04/03 09:31:41;;;;;;;8.95;8.15;;;;;;;15.45;50.46;100263.36;1693979;85;21061;-64
2022/04/03 09:34:16;;;;;;;9.48;8.68;;;;;;;15.48;50.14;100261.88;1672079;85;21506;-64
2022/04/03 09:37:00;;;;;;;8.88;8.13;;;;;;;15.50;50.12;100267.90;1681404;85;21522;-64
2022/04/03 09:39:29;;;;;;;8.63;7.92;;;;;;;15.55;50.21;100276.41;1656561;86;21559;-65
2022/04/03 09:42:05;;;;;;;9.35;8.53;;;;;;;15.64;49.92;100264.61;1637036;85;21616;-65
2022/04/03 09:44:41;;;;;;;9.70;8.83;;;;;;;15.70;49.82;100253.36;1598145;89;21073;-65
2022/04/03 09:47:22;;;;;;;11.95;10.85;;;;;;;15.71;49.69;100250.24;1655794;86;21168;-64
2022/04/03 09:50:04;;;;;;;14.30;12.75;;;;;;;15.70;49.59;100259.91;1595202;90;21180;-64
2022/04/03 09:52:33;;;;;;;12.30;11.12;;;;;;;15.68;49.64;100260.91;1534620;93;21129;-64
2022/04/03 09:55:21;;;;;;;12.55;11.35;;;;;;;15.71;49.60;100268.15;1540296;93;21095;-65
2022/04/03 09:58:06;;;;;;;16.42;13.48;;;;;;;15.76;49.50;100277.96;1538953;93;21061;-64
2022/04/03 10:00:37;;;;;;;12.28;11.08;;;;;;;15.77;48.87;100275.70;1433459;100;21144;-64
2022/04/03 10:03:05;;;;;;;12.95;11.40;;;;;;;15.64;49.14;100278.55;1433344;99;21128;-64
2022/04/03 10:05:34;;;;;;;13.30;10.72;;;;;;;15.65;49.42;100289.89;1431124;99;21217;-64
2022/04/03 10:08:02;;;;;;;10.90;9.73;;;;;;;15.68;49.25;100285.37;1456433;97;21655;-64
2022/04/03 10:10:31;;;;;;;11.55;10.43;;;;;;;15.67;49.49;100286.28;1456440;97;21165;-65
2022/04/03 10:13:01;;;;;;;12.35;10.30;;;;;;;15.59;49.87;100284.50;1433441;99;21095;-64
2022/04/03 10:15:29;;;;;;;14.35;10.55;;;;;;;15.58;50.06;100286.72;1433333;99;21125;-65
2022/04/03 10:17:56;;;;;;;10.13;9.08;;;;;;;15.58;49.97;100290.66;1414532;99;21607;-65
2022/04/03 10:20:28;;;;;;;10.38;9.30;;;;;;;15.59;49.86;100300.23;1431004;99;21213;-64
2022/04/03 10:23:00;;;;;;;10.75;9.75;;;;;;;15.55;49.85;100310.49;1458086;97;21582;-64
2022/04/03 10:25:30;;;;;;;10.13;9.15;;;;;;;15.49;49.79;100313.41;1453003;97;21159;-64
2022/04/03 10:28:01;;;;;;;11.05;9.95;;;;;;;15.36;49.83;100324.06;1456411;97;21606;-65
2022/04/03 10:30:44;;;;;;;10.85;9.85;;;;;;;15.16;50.12;100322.86;1452924;97;21107;-64
2022/04/03 10:33:19;;;;;;;10.32;9.33;;;;;;;15.00;50.78;100337.12;1455558;97;21153;-64
2022/04/03 10:35:49;;;;;;;10.32;9.33;;;;;;;14.90;50.60;100338.47;1449139;98;21160;-64
2022/04/03 10:38:18;;;;;;;13.20;10.35;;;;;;;14.83;50.39;100340.14;1449254;99;21086;-65
2022/04/03 10:40:58;;;;;;;11.93;10.20;;;;;;;14.77;50.64;100341.27;1434936;99;21621;-64
2022/04/03 10:43:29;;;;;;;13.90;10.13;;;;;;;14.77;50.55;100343.03;1462379;96;21306;-64
2022/04/03 10:45:57;;;;;;;13.35;9.35;;;;;;;14.83;50.87;100337.52;1466540;94;21125;-65
2022/04/03 10:48:28;;;;;;;9.33;8.38;;;;;;;14.89;50.43;100347.71;1550680;90;21165;-65
2022/04/03 10:51:11;;;;;;;8.28;7.47;;;;;;;14.88;50.27;100347.34;1576264;90;21026;-64
2022/04/03 10:53:43;;;;;;;6.47;5.90;;;;;;;14.83;50.05;100353.23;1576532;90;21061;-65
2022/04/03 10:56:25;;;;;;;6.30;5.78;;;;;;;14.77;49.96;100346.97;1680840;84;21041;-64
2022/04/03 10:58:57;;;;;;;7.17;6.08;;;;;;;14.77;49.99;100346.97;1689004;84;21014;-64
2022/04/03 11:01:31;;;;;;;7.22;6.53;;;;;;;14.81;49.80;100349.83;1701103;84;21033;-65
2022/04/03 11:04:13;;;;;;;6.87;6.15;;;;;;;14.83;49.34;100345.37;1701101;84;21072;-64
2022/04/03 11:06:41;;;;;;;7.28;6.58;;;;;;;14.80;49.22;100348.97;1700989;84;21101;-65
2022/04/03 11:09:12;;;;;;;7.97;7.03;;;;;;;14.80;49.05;100359.45;1701247;84;21082;-64
2022/04/03 11:11:56;;;;;;;7.17;6.47;;;;;;;14.75;48.79;100359.28;1700838;84;21011;-64
2022/04/03 11:14:56;;;;;;;7.87;7.17;;;;;;;14.69;49.29;100353.38;1698405;84;21034;-65
2022/04/03 11:17:51;;;;;;;8.13;7.40;;;;;;;14.72;49.28;100347.62;1698509;84;21042;-64
2022/04/03 11:20:34;;;;;;;7.50;6.83;;;;;;;14.75;48.95;100350.11;1700963;84;21114;-64
2022/04/03 11:23:02;;;;;;;7.90;7.03;;;;;;;14.84;48.53;100357.57;1631598;87;21585;-63
2022/04/03 11:25:29;;;;;;;8.20;7.47;;;;;;;14.91;48.09;100351.97;1601903;87;21095;-64
2022/04/03 11:27:56;;;;;;;7.58;6.87;;;;;;;15.03;47.34;100353.16;1626177;87;21075;-64
2022/04/03 11:30:25;;;;;;;8.65;7.75;;;;;;;15.14;47.21;100354.84;1627603;87;21072;-64
2022/04/03 11:32:52;;;;;;;8.30;7.50;;;;;;;15.23;46.36;100351.77;1628149;87;21102;-64
2022/04/03 11:35:36;;;;;;;8.80;7.85;;;;;;;15.24;46.24;100356.97;1627985;87;21070;-64